Time;durP1;ratioP1;P1;durP2;ratioP2;P2;SDS_P1;SDS_P2;PMS_P1;PMS_P2;Temp;Humidity;BMP_temperature;BMP_pressure;BME280_temperature;BME280_humidity;BME280_pressure;Samples;Min_cycle;Max_cycle;Signal;HPM_P1;HPM_P2
2021/01/03 00:02:30;;;;;;;7.82;3.88;;;;;;;-2.45;98.82;100501.03;4996733;28;20064;-61
2021/01/03 00:05:20;;;;;;;8.40;3.50;;;;;;;-2.43;98.21;100499.28;4994029;28;20050;-62
2021/01/03 00:08:06;;;;;;;8.93;3.75;;;;;;;-2.44;99.07;100501.88;4995705;28;20185;-62
2021/01/03 00:10:52;;;;;;;8.10;3.97;;;;;;;-2.43;98.31;100501.84;4995165;28;20073;-62
2021/01/03 00:13:39;;;;;;;6.32;3.40;;;;;;;-2.42;99.26;100508.69;4995952;28;20045;-62
2021/01/03 00:16:25;;;;;;;7.68;3.60;;;;;;;-2.42;99.18;100505.25;4999173;28;20064;-62
2021/01/03 00:19:12;;;;;;;8.00;3.70;;;;;;;-2.41;99.01;100502.69;4995648;28;20072;-62
2021/01/03 00:21:58;;;;;;;8.52;3.88;;;;;;;-2.49;98.27;100498.53;4996659;28;20127;-62
2021/01/03 00:24:46;;;;;;;8.27;3.85;;;;;;;-2.44;99.22;100504.44;4993757;28;20405;-63
2021/01/03 00:27:33;;;;;;;8.40;4.03;;;;;;;-2.44;99.23;100505.28;5008925;28;20131;-63
2021/01/03 00:30:23;;;;;;;8.60;4.30;;;;;;;-2.43;98.69;100503.56;5010518;28;20120;-62
2021/01/03 00:33:09;;;;;;;7.28;3.60;;;;;;;-2.44;98.33;100504.44;5008242;28;20149;-62
2021/01/03 00:35:56;;;;;;;8.05;4.07;;;;;;;-2.46;98.44;100507.03;4994038;28;20145;-62
2021/01/03 00:38:43;;;;;;;8.52;3.97;;;;;;;-2.44;98.88;100501.88;4995899;28;20104;-62
2021/01/03 00:41:30;;;;;;;9.50;4.43;;;;;;;-2.44;98.55;100507.00;4996254;28;20057;-63
2021/01/03 00:44:17;;;;;;;9.38;3.53;;;;;;;-2.46;98.94;100504.47;4995952;28;20559;-63
2021/01/03 00:47:03;;;;;;;7.45;2.95;;;;;;;-2.44;98.59;100507.00;4996305;28;20046;-61
2021/01/03 00:49:49;;;;;;;9.90;4.35;;;;;;;-2.43;98.20;100509.53;5007590;28;20046;-62
2021/01/03 00:52:36;;;;;;;9.35;4.40;;;;;;;-2.45;98.10;100507.88;4998107;28;20054;-62
2021/01/03 00:55:22;;;;;;;7.90;3.75;;;;;;;-2.43;98.31;100511.25;5012812;28;20058;-62
2021/01/03 00:58:09;;;;;;;8.98;4.00;;;;;;;-2.48;98.74;100508.75;4998068;28;20057;-62
2021/01/03 01:00:55;;;;;;;6.10;3.47;;;;;;;-2.46;98.56;100508.75;5011275;28;20302;-62
2021/01/03 01:03:42;;;;;;;5.68;3.20;;;;;;;-2.43;98.89;100519.78;4995342;28;20049;-63
2021/01/03 01:06:28;;;;;;;7.68;3.70;;;;;;;-2.45;98.57;100529.19;4999786;28;20492;-62
2021/01/03 01:09:14;;;;;;;8.88;3.92;;;;;;;-2.47;99.03;100523.28;4999622;28;20133;-61
2021/01/03 01:12:01;;;;;;;7.60;3.80;;;;;;;-2.46;99.33;100519.00;4998240;28;20536;-61
2021/01/03 01:14:47;;;;;;;8.60;3.90;;;;;;;-2.45;99.38;100523.25;4998716;28;20100;-63
2021/01/03 01:17:34;;;;;;;9.20;4.15;;;;;;;-2.45;98.92;100518.97;5012653;28;20559;-62
2021/01/03 01:20:25;;;;;;;8.50;4.53;;;;;;;-2.47;99.06;100530.94;4998263;28;20081;-62
2021/01/03 01:23:11;;;;;;;8.23;3.67;;;;;;;-2.46;98.60;100529.25;4999192;28;20103;-62
2021/01/03 01:25:58;;;;;;;8.38;3.70;;;;;;;-2.44;99.40;100532.59;4998820;28;20046;-61
2021/01/03 01:28:44;;;;;;;10.20;4.05;;;;;;;-2.47;99.41;100527.50;4998131;28;20054;-61
2021/01/03 01:31:31;;;;;;;9.27;3.80;;;;;;;-2.45;99.10;100530.91;4999592;28;20099;-62
2021/01/03 01:34:17;;;;;;;8.27;3.28;;;;;;;-2.44;98.86;100530.03;4997227;28;20493;-62
2021/01/03 01:37:04;;;;;;;7.35;3.83;;;;;;;-2.46;99.27;100535.19;4998614;28;20619;-61
2021/01/03 01:39:50;;;;;;;6.80;3.60;;;;;;;-2.48;98.71;100526.66;4998228;28;20065;-61
2021/01/03 01:42:36;;;;;;;7.40;3.72;;;;;;;-2.46;99.84;100529.25;4997244;28;20056;-61
2021/01/03 01:45:36;;;;;;;7.03;3.25;;;;;;;-2.45;98.63;100530.91;4998125;28;20046;-61
2021/01/03 01:48:27;;;;;;;8.15;3.58;;;;;;;-2.43;99.53;100529.16;4998833;28;20054;-62
2021/01/03 01:51:28;;;;;;;7.38;4.03;;;;;;;-2.44;99.13;100527.47;4999351;28;20104;-62
2021/01/03 01:54:22;;;;;;;7.05;3.53;;;;;;;-2.44;99.38;100524.91;5010127;28;20053;-62
2021/01/03 01:57:22;;;;;;;8.32;3.65;;;;;;;-2.46;98.72;100524.13;4998620;28;20057;-61
2021/01/03 02:00:14;;;;;;;7.13;3.90;;;;;;;-2.43;98.41;100526.59;4998570;28;20057;-62
2021/01/03 02:03:39;;;;;;;7.63;3.85;;;;;;;-2.44;98.48;100525.75;4998952;28;20532;-62
2021/01/03 02:06:36;;;;;;;6.25;3.53;;;;;;;-2.44;99.53;100527.47;4918675;29;20070;-61
2021/01/03 02:09:51;;;;;;;7.20;4.20;;;;;;;-2.43;98.60;100527.44;4997068;28;20082;-61
2021/01/03 02:12:42;;;;;;;8.57;3.88;;;;;;;-2.47;99.19;100532.63;5009946;28;20049;-61
2021/01/03 02:15:31;;;;;;;10.15;3.97;;;;;;;-2.44;99.57;100525.75;4995405;28;20084;-61
2021/01/03 02:18:19;;;;;;;7.80;3.30;;;;;;;-2.41;99.43;100532.56;4996165;28;20108;-62
2021/01/03 02:21:11;;;;;;;7.95;3.10;;;;;;;-2.43;98.89;100531.72;5012085;28;20100;-62
2021/01/03 02:24:19;;;;;;;8.63;3.67;;;;;;;-2.41;98.75;100533.41;5009438;28;20560;-62
2021/01/03 02:27:11;;;;;;;7.65;3.88;;;;;;;-2.40;99.20;100532.53;5009480;28;20438;-61
2021/01/03 02:30:00;;;;;;;6.57;3.25;;;;;;;-2.38;98.18;100535.06;4984201;28;20082;-62
2021/01/03 02:32:49;;;;;;;7.60;3.38;;;;;;;-2.35;98.73;100540.16;4997614;28;20100;-61
2021/01/03 02:35:39;;;;;;;9.98;4.22;;;;;;;-2.38;98.15;100532.50;4997416;28;20173;-62
2021/01/03 02:38:30;;;;;;;8.75;3.63;;;;;;;-2.39;99.19;100535.94;4996117;28;20562;-61
2021/01/03 02:41:18;;;;;;;7.10;3.25;;;;;;;-2.40;98.79;100534.25;5011486;28;20074;-62
2021/01/03 02:44:05;;;;;;;9.77;4.38;;;;;;;-2.41;98.33;100537.69;4996730;28;20047;-63
2021/01/03 02:46:55;;;;;;;6.88;3.40;;;;;;;-2.39;98.73;100543.63;4997370;28;20049;-62
2021/01/03 02:49:42;;;;;;;7.22;3.65;;;;;;;-2.42;98.38;100546.22;4997759;28;20058;-62
2021/01/03 02:52:35;;;;;;;8.30;3.75;;;;;;;-2.40;98.33;100547.06;4995778;28;20053;-61
2021/01/03 02:55:22;;;;;;;9.32;4.18;;;;;;;-2.45;99.25;100541.16;4994951;28;20493;-61
2021/01/03 02:58:09;;;;;;;10.48;4.47;;;;;;;-2.42;98.91;100544.53;5011269;28;20137;-62
2021/01/03 03:00:55;;;;;;;7.45;3.72;;;;;;;-2.47;99.03;100548.00;4997253;28;20054;-61
2021/01/03 03:03:42;;;;;;;7.68;4.22;;;;;;;-2.43;98.54;100552.22;4996597;28;20058;-62
2021/01/03 03:06:28;;;;;;;6.85;3.45;;;;;;;-2.43;98.43;100547.94;4996954;28;20077;-61
2021/01/03 03:09:14;;;;;;;11.20;4.65;;;;;;;-2.43;99.37;100547.94;4996459;28;20053;-62
2021/01/03 03:12:01;;;;;;;8.75;3.70;;;;;;;-2.42;98.72;100546.22;4997032;28;20080;-61
2021/01/03 03:14:47;;;;;;;7.75;4.03;;;;;;;-2.43;98.40;100559.91;4995200;28;20050;-62
2021/01/03 03:17:35;;;;;;;7.78;3.75;;;;;;;-2.44;98.84;100556.50;4983559;28;20149;-62
2021/01/03 03:20:22;;;;;;;9.38;4.43;;;;;;;-2.49;98.76;100552.31;4997096;28;20112;-63
2021/01/03 03:23:09;;;;;;;7.85;3.95;;;;;;;-2.51;99.22;100554.06;4997490;28;20413;-61
2021/01/03 03:25:55;;;;;;;8.93;3.97;;;;;;;-2.48;99.25;100559.97;4996690;28;20046;-62
2021/01/03 03:28:41;;;;;;;7.65;3.38;;;;;;;-2.48;98.36;100557.41;4995625;28;20108;-60
2021/01/03 03:31:29;;;;;;;7.07;3.67;;;;;;;-2.46;98.31;100557.41;4996475;28;20139;-62
2021/01/03 03:34:17;;;;;;;8.25;4.00;;;;;;;-2.47;98.99;100555.69;5009097;28;20480;-60
2021/01/03 03:37:03;;;;;;;8.48;3.65;;;;;;;-2.49;99.25;100558.28;4996265;28;21571;-62
2021/01/03 03:39:50;;;;;;;8.63;3.75;;;;;;;-2.48;98.22;100559.13;5011236;28;20489;-61
2021/01/03 03:42:36;;;;;;;6.70;3.85;;;;;;;-2.46;98.94;100567.66;4997006;28;20058;-61
2021/01/03 03:45:23;;;;;;;9.50;4.10;;;;;;;-2.46;99.19;100568.50;4996495;28;20082;-62
2021/01/03 03:48:10;;;;;;;6.85;3.75;;;;;;;-2.46;98.46;100571.03;4996616;28;20058;-61
2021/01/03 03:50:56;;;;;;;8.95;4.25;;;;;;;-2.48;99.03;100575.31;5009873;28;20145;-61
2021/01/03 03:53:47;;;;;;;8.27;4.25;;;;;;;-2.47;99.54;100569.38;5009664;28;20493;-62
2021/01/03 03:56:33;;;;;;;6.35;3.55;;;;;;;-2.45;99.37;100574.44;4996227;28;20493;-61
2021/01/03 03:59:21;;;;;;;8.23;4.00;;;;;;;-2.46;98.63;100567.66;4994667;28;20045;-62
2021/01/03 04:02:07;;;;;;;8.05;3.67;;;;;;;-2.42;98.84;100576.94;4996719;28;20069;-62
2021/01/03 04:04:54;;;;;;;7.13;3.78;;;;;;;-2.44;99.38;100576.97;4993676;28;20081;-63
2021/01/03 04:07:40;;;;;;;7.53;3.85;;;;;;;-2.43;98.69;100578.66;4995645;28;20054;-62
2021/01/03 04:10:29;;;;;;;10.45;4.28;;;;;;;-2.43;98.33;100571.00;5010070;28;20744;-61
2021/01/03 04:13:16;;;;;;;8.27;4.35;;;;;;;-2.43;99.49;100582.94;4995001;28;20082;-62
2021/01/03 04:16:06;;;;;;;8.43;3.28;;;;;;;-2.44;99.22;100579.53;4994654;28;20054;-62
2021/01/03 04:18:53;;;;;;;10.20;4.45;;;;;;;-2.44;98.54;100583.81;4994040;28;20525;-61
2021/01/03 04:21:39;;;;;;;7.45;3.63;;;;;;;-2.41;98.41;100583.78;4995708;28;20444;-62
2021/01/03 04:24:28;;;;;;;6.72;3.15;;;;;;;-2.43;99.01;100581.22;5008971;28;20056;-61
2021/01/03 04:27:14;;;;;;;6.63;3.90;;;;;;;-2.41;99.29;100586.34;4994835;28;20046;-61
2021/01/03 04:30:00;;;;;;;7.63;4.15;;;;;;;-2.43;99.45;100586.34;4994470;28;20440;-61
2021/01/03 04:32:48;;;;;;;7.50;3.70;;;;;;;-2.51;98.69;100588.19;4996476;28;20485;-61
2021/01/03 04:35:34;;;;;;;8.50;4.03;;;;;;;-2.47;98.52;100587.28;4995579;28;20077;-61
2021/01/03 04:38:21;;;;;;;8.57;3.75;;;;;;;-2.42;98.77;100584.63;4995011;28;20045;-61
2021/01/03 04:41:31;;;;;;;8.20;3.80;;;;;;;-2.48;98.48;100577.88;4995121;28;20108;-61
2021/01/03 04:44:21;;;;;;;8.77;3.83;;;;;;;-2.46;98.62;100588.13;4995905;28;20061;-61
2021/01/03 04:47:32;;;;;;;7.40;3.58;;;;;;;-2.46;99.28;100591.53;4994912;28;20504;-61
2021/01/03 04:50:21;;;;;;;8.48;3.40;;;;;;;-2.45;98.43;100587.25;5009033;28;20520;-61
2021/01/03 04:53:34;;;;;;;10.02;3.70;;;;;;;-2.45;98.47;100594.94;4994148;28;20393;-61
2021/01/03 04:56:26;;;;;;;7.75;3.40;;;;;;;-2.46;98.93;100594.09;5008099;28;20121;-61
2021/01/03 04:59:28;;;;;;;5.55;3.00;;;;;;;-2.45;98.46;100594.94;4995339;28;20464;-61
2021/01/03 05:02:44;;;;;;;7.93;3.97;;;;;;;-2.44;99.42;100601.75;4993808;28;20081;-61
2021/01/03 05:05:37;;;;;;;7.95;3.60;;;;;;;-2.44;98.44;100601.75;4994278;28;20089;-61
2021/01/03 05:08:33;;;;;;;5.85;2.90;;;;;;;-2.45;98.58;100602.63;4996085;28;20128;-61
2021/01/03 05:11:26;;;;;;;7.93;3.05;;;;;;;-2.49;98.40;100606.94;5004821;28;20049;-61
2021/01/03 05:14:34;;;;;;;8.43;4.40;;;;;;;-2.49;98.58;100606.09;4993910;28;20054;-61
2021/01/03 05:17:21;;;;;;;7.65;4.18;;;;;;;-2.49;99.01;100612.03;4995353;28;20081;-61
2021/01/03 05:20:08;;;;;;;6.38;3.40;;;;;;;-2.48;99.49;100607.75;5009480;28;20523;-61
2021/01/03 05:23:12;;;;;;;6.25;3.15;;;;;;;-2.45;98.76;100612.88;4995474;28;20104;-61
2021/01/03 05:25:58;;;;;;;7.30;3.55;;;;;;;-2.45;98.26;100617.97;4994723;28;20050;-62
2021/01/03 05:28:54;;;;;;;6.78;3.40;;;;;;;-2.46;99.21;100614.56;5007489;28;20084;-61
2021/01/03 05:31:55;;;;;;;7.18;3.05;;;;;;;-2.43;98.64;100617.06;5009177;28;20608;-61
2021/01/03 05:34:44;;;;;;;7.97;3.70;;;;;;;-2.43;99.25;100626.47;5003937;28;20127;-61
2021/01/03 05:37:32;;;;;;;6.72;3.40;;;;;;;-2.45;98.67;100623.94;5005637;28;20136;-61
2021/01/03 05:40:28;;;;;;;7.72;3.80;;;;;;;-2.45;98.75;100623.09;4997700;28;20505;-61
2021/01/03 05:43:24;;;;;;;7.28;3.67;;;;;;;-2.42;98.77;100628.16;5000177;28;20042;-61
2021/01/03 05:46:32;;;;;;;9.02;3.90;;;;;;;-2.43;99.05;100629.03;4997937;28;20074;-61
2021/01/03 05:49:25;;;;;;;8.40;3.33;;;;;;;-2.43;98.68;100629.88;4996138;28;20145;-62
2021/01/03 05:52:32;;;;;;;7.75;3.80;;;;;;;-2.47;98.95;100637.63;4999079;28;20050;-61
2021/01/03 05:55:25;;;;;;;7.35;3.65;;;;;;;-2.45;98.77;100641.03;4998416;28;20103;-61
2021/01/03 05:58:16;;;;;;;6.68;3.30;;;;;;;-2.45;98.40;100647.00;5012146;28;20054;-61
2021/01/03 06:01:23;;;;;;;6.20;3.13;;;;;;;-2.45;98.67;100652.13;4997604;28;20053;-61
2021/01/03 06:04:19;;;;;;;7.35;3.05;;;;;;;-2.45;98.90;100652.13;4997331;28;20053;-62
2021/01/03 06:07:18;;;;;;;6.18;2.95;;;;;;;-2.44;98.50;100650.41;4998057;28;20050;-61
2021/01/03 06:10:41;;;;;;;8.13;3.85;;;;;;;-2.50;99.14;100656.44;5010375;28;20046;-62
2021/01/03 06:13:28;;;;;;;6.18;3.03;;;;;;;-2.49;98.97;100658.13;4996649;28;20547;-61
2021/01/03 06:16:17;;;;;;;7.57;3.65;;;;;;;-2.47;98.37;100660.66;5011466;28;20077;-61
2021/01/03 06:19:24;;;;;;;6.78;3.58;;;;;;;-2.48;98.61;100664.94;4998684;28;20085;-62
2021/01/03 06:22:25;;;;;;;8.73;3.85;;;;;;;-2.45;99.13;100676.88;4998205;28;20072;-62
2021/01/03 06:25:20;;;;;;;7.80;3.63;;;;;;;-2.51;98.43;100671.84;5010535;28;20046;-62
2021/01/03 06:28:13;;;;;;;8.52;4.05;;;;;;;-2.48;98.51;100682.03;4996079;28;20456;-62
2021/01/03 06:31:30;;;;;;;6.60;3.42;;;;;;;-2.50;98.12;100681.22;4997006;28;20054;-61
2021/01/03 06:34:19;;;;;;;6.43;3.08;;;;;;;-2.49;98.77;100682.91;4998468;28;21639;-61
2021/01/03 06:37:06;;;;;;;6.25;3.28;;;;;;;-2.48;98.60;100684.59;4997862;28;20828;-61
2021/01/03 06:40:18;;;;;;;5.85;3.15;;;;;;;-2.45;98.99;100687.97;4993457;28;20375;-62
2021/01/03 06:43:42;;;;;;;5.90;3.15;;;;;;;-2.45;99.21;100692.25;4993769;28;20064;-62
2021/01/03 06:46:50;;;;;;;8.02;3.20;;;;;;;-2.49;98.85;100699.09;4997628;28;20058;-61
2021/01/03 06:50:03;;;;;;;7.32;3.80;;;;;;;-2.48;98.25;100699.94;5009248;28;20404;-61
2021/01/03 06:53:14;;;;;;;5.93;3.38;;;;;;;-2.50;98.11;100707.66;5008695;28;20050;-62
2021/01/03 06:56:19;;;;;;;5.75;2.78;;;;;;;-2.51;98.32;100710.25;4997258;28;20057;-61
2021/01/03 06:59:27;;;;;;;9.00;3.30;;;;;;;-2.51;99.26;100718.78;5010215;28;20093;-61
2021/01/03 07:02:17;;;;;;;4.70;2.38;;;;;;;-2.54;98.54;100708.56;4995346;28;20089;-61
2021/01/03 07:05:06;;;;;;;6.15;2.88;;;;;;;-2.55;98.07;100721.38;4997496;28;20070;-61
2021/01/03 07:07:59;;;;;;;6.22;3.00;;;;;;;-2.53;99.00;100723.03;5010750;28;20060;-62
2021/01/03 07:10:47;;;;;;;5.63;3.05;;;;;;;-2.51;98.85;100731.56;4996468;28;20053;-62
2021/01/03 07:13:36;;;;;;;5.82;3.05;;;;;;;-2.54;99.07;100731.59;4996016;28;20053;-61
2021/01/03 07:16:47;;;;;;;7.32;3.53;;;;;;;-2.55;98.23;100736.75;4996416;28;20059;-61
2021/01/03 07:19:42;;;;;;;7.40;4.43;;;;;;;-2.55;98.97;100729.91;5011407;28;20049;-61
2021/01/03 07:23:01;;;;;;;10.60;3.58;;;;;;;-2.55;98.49;100735.03;4996560;28;20042;-61
2021/01/03 07:26:02;;;;;;;6.90;2.97;;;;;;;-2.52;98.85;100749.50;4997244;28;20050;-61
2021/01/03 07:28:53;;;;;;;7.35;4.20;;;;;;;-2.55;98.10;100744.44;5010798;28;20046;-61
2021/01/03 07:32:03;;;;;;;7.40;3.47;;;;;;;-2.55;97.97;100755.50;4997209;28;20050;-61
2021/01/03 07:34:52;;;;;;;7.63;3.05;;;;;;;-2.55;98.52;100755.50;4995463;28;20065;-61
2021/01/03 07:37:38;;;;;;;7.13;3.50;;;;;;;-2.54;98.50;100757.19;4997391;28;20053;-62
2021/01/03 07:40:25;;;;;;;8.38;4.03;;;;;;;-2.53;98.09;100756.31;5010172;28;20101;-61
2021/01/03 07:43:11;;;;;;;5.93;3.40;;;;;;;-2.53;98.82;100758.88;4996197;28;20112;-61
2021/01/03 07:45:58;;;;;;;7.30;3.40;;;;;;;-2.56;98.34;100766.63;5009851;28;20088;-61
2021/01/03 07:48:44;;;;;;;6.25;3.58;;;;;;;-2.56;98.24;100766.63;4994424;28;20053;-61
2021/01/03 07:51:43;;;;;;;6.40;3.30;;;;;;;-2.52;97.91;100767.41;4997149;28;20054;-61
2021/01/03 07:54:29;;;;;;;7.55;3.45;;;;;;;-2.55;98.59;100768.31;4997124;28;20136;-61
2021/01/03 07:57:16;;;;;;;6.32;3.45;;;;;;;-2.51;98.82;100766.56;5010712;28;20478;-61
2021/01/03 08:00:04;;;;;;;7.15;3.38;;;;;;;-2.48;98.68;100771.66;4996897;28;20060;-61
2021/01/03 08:02:55;;;;;;;5.80;3.08;;;;;;;-2.49;98.30;100778.47;4995938;28;20492;-62
2021/01/03 08:05:44;;;;;;;6.18;3.67;;;;;;;-2.51;98.72;100782.78;5010411;28;20077;-61
2021/01/03 08:08:30;;;;;;;6.53;3.03;;;;;;;-2.53;98.91;100783.66;4994763;28;20087;-61
2021/01/03 08:11:36;;;;;;;6.60;3.15;;;;;;;-2.54;97.82;100787.94;4995730;28;20054;-62
2021/01/03 08:14:27;;;;;;;7.78;3.92;;;;;;;-2.51;98.36;100792.19;5009342;28;20053;-62
2021/01/03 08:17:21;;;;;;;5.55;2.97;;;;;;;-2.49;97.85;100790.44;4994247;28;20046;-61
2021/01/03 08:20:23;;;;;;;8.05;3.40;;;;;;;-2.48;97.74;100785.28;5010015;28;20104;-61
2021/01/03 08:23:28;;;;;;;5.90;3.03;;;;;;;-2.47;98.52;100789.59;4993767;28;20049;-62
2021/01/03 08:26:22;;;;;;;6.72;3.83;;;;;;;-2.44;98.19;100792.09;4994419;28;20054;-62
2021/01/03 08:29:21;;;;;;;7.03;3.50;;;;;;;-2.45;98.03;100792.13;4993665;28;20176;-61
2021/01/03 08:32:12;;;;;;;6.57;2.92;;;;;;;-2.46;97.54;100792.97;4992650;28;20058;-61
2021/01/03 08:35:12;;;;;;;6.75;2.97;;;;;;;-2.45;97.76;100799.78;4995867;28;20045;-61
2021/01/03 08:37:58;;;;;;;6.68;3.13;;;;;;;-2.48;97.92;100799.81;5009154;28;20046;-61
2021/01/03 08:40:45;;;;;;;8.20;4.00;;;;;;;-2.42;98.21;100802.31;4994342;28;20064;-60
2021/01/03 08:43:32;;;;;;;8.10;3.60;;;;;;;-2.41;97.29;100804.88;4995130;28;20054;-61
2021/01/03 08:46:25;;;;;;;7.03;3.13;;;;;;;-2.35;98.37;100806.53;4994021;28;20136;-61
2021/01/03 08:49:11;;;;;;;5.63;3.25;;;;;;;-2.36;97.11;100808.22;4992012;28;20151;-61
2021/01/03 08:52:05;;;;;;;6.85;3.10;;;;;;;-2.33;97.40;100823.59;4994171;28;20495;-62
2021/01/03 08:55:11;;;;;;;7.28;3.58;;;;;;;-2.32;96.53;100824.44;4996162;28;20112;-61
2021/01/03 08:58:00;;;;;;;5.85;3.75;;;;;;;-2.40;96.98;100823.66;4994627;28;20100;-61
2021/01/03 09:00:59;;;;;;;6.10;3.28;;;;;;;-2.39;97.63;100823.63;4993088;28;20054;-62
2021/01/03 09:03:49;;;;;;;7.13;4.03;;;;;;;-2.38;97.45;100825.31;4996152;28;20128;-60
2021/01/03 09:06:36;;;;;;;5.45;3.33;;;;;;;-2.43;97.39;100829.63;5008148;28;20050;-61
2021/01/03 09:09:30;;;;;;;7.82;3.60;;;;;;;-2.52;97.12;100827.16;4995833;28;20061;-62
2021/01/03 09:12:33;;;;;;;4.93;2.55;;;;;;;-2.47;97.59;100822.00;4996125;28;20497;-61
2021/01/03 09:15:24;;;;;;;6.72;3.60;;;;;;;-2.44;96.46;100825.38;5011876;28;20050;-62
2021/01/03 09:18:10;;;;;;;8.38;3.78;;;;;;;-2.50;96.71;100832.28;4999432;28;20112;-61
2021/01/03 09:21:06;;;;;;;6.90;3.83;;;;;;;-2.45;97.06;100839.06;5013615;28;20089;-61
2021/01/03 09:24:04;;;;;;;7.57;3.58;;;;;;;-2.45;96.96;100838.22;4999297;28;20511;-62
2021/01/03 09:26:52;;;;;;;7.07;3.90;;;;;;;-2.44;96.35;100840.75;4997430;28;20042;-61
2021/01/03 09:29:40;;;;;;;7.03;3.30;;;;;;;-2.52;96.41;100841.66;4997062;28;20092;-62
2021/01/03 09:32:29;;;;;;;6.85;3.75;;;;;;;-2.47;96.21;100845.03;5010124;28;20049;-62
2021/01/03 09:35:54;;;;;;;6.53;3.78;;;;;;;-2.61;97.27;100845.19;4998995;28;20096;-61
2021/01/03 09:38:54;;;;;;;7.15;3.88;;;;;;;-2.54;97.53;100864.75;4999743;28;20056;-62
2021/01/03 09:42:02;;;;;;;7.13;3.63;;;;;;;-2.47;97.30;100860.41;4998791;28;20086;-62
2021/01/03 09:45:21;;;;;;;7.00;3.78;;;;;;;-2.46;97.17;100864.69;4998105;28;20054;-61
2021/01/03 09:48:22;;;;;;;9.32;5.82;;;;;;;-2.45;97.18;100861.25;4997824;28;20159;-62
2021/01/03 09:51:42;;;;;;;8.60;4.40;;;;;;;-2.42;96.36;100871.44;4994621;28;20440;-62
2021/01/03 09:54:41;;;;;;;7.78;3.63;;;;;;;-2.42;97.19;100868.91;4980233;28;20057;-61
2021/01/03 09:57:47;;;;;;;5.80;3.08;;;;;;;-2.45;96.97;100869.78;4997104;28;20405;-61
2021/01/03 10:00:58;;;;;;;6.75;3.42;;;;;;;-2.39;96.49;100879.13;4995526;28;20058;-62
2021/01/03 10:03:45;;;;;;;6.57;3.67;;;;;;;-2.38;97.17;100881.66;4989972;28;20498;-62
2021/01/03 10:06:37;;;;;;;7.35;3.53;;;;;;;-2.35;97.13;100881.63;4997549;28;20140;-61
2021/01/03 10:09:24;;;;;;;6.32;3.53;;;;;;;-2.34;97.05;100887.59;4996692;28;20061;-61
2021/01/03 10:12:26;;;;;;;6.78;3.90;;;;;;;-2.38;96.97;100891.91;4994568;28;20107;-61
2021/01/03 10:15:22;;;;;;;5.63;3.17;;;;;;;-2.33;95.97;100891.88;4995558;28;20061;-61
2021/01/03 10:18:12;;;;;;;8.35;3.15;;;;;;;-2.34;97.03;100888.47;4996813;28;20049;-61
2021/01/03 10:20:59;;;;;;;6.60;3.35;;;;;;;-2.38;96.05;100901.31;4998917;28;20057;-61
2021/01/03 10:23:57;;;;;;;8.52;3.75;;;;;;;-2.46;96.41;100895.41;5009829;28;20062;-60
2021/01/03 10:26:47;;;;;;;6.78;3.60;;;;;;;-2.38;96.32;100906.41;4996066;28;20139;-62
2021/01/03 10:29:33;;;;;;;6.55;3.40;;;;;;;-2.42;97.01;100900.50;4998734;28;20744;-61
2021/01/03 10:32:21;;;;;;;8.98;4.35;;;;;;;-2.36;96.94;100904.72;4996636;28;20152;-61
2021/01/03 10:35:08;;;;;;;7.88;4.65;;;;;;;-2.37;96.51;100909.00;5011028;28;20559;-61
2021/01/03 10:37:54;;;;;;;6.28;3.47;;;;;;;-2.40;95.59;100914.13;4998928;28;20045;-61
2021/01/03 10:40:40;;;;;;;6.93;3.60;;;;;;;-2.39;95.99;100915.81;4997595;28;20042;-62
2021/01/03 10:43:27;;;;;;;8.38;3.67;;;;;;;-2.39;96.09;100915.81;4997067;28;20121;-61
2021/01/03 10:46:16;;;;;;;6.40;3.50;;;;;;;-2.46;95.97;100919.31;5012543;28;20053;-61
2021/01/03 10:49:03;;;;;;;6.63;3.75;;;;;;;-2.46;95.57;100923.59;5012248;28;20057;-63
2021/01/03 10:51:50;;;;;;;7.68;3.08;;;;;;;-2.49;95.52;100928.72;4994811;28;20104;-61
2021/01/03 10:54:37;;;;;;;7.00;3.22;;;;;;;-2.49;96.19;100931.28;4998464;28;20053;-62
2021/01/03 10:57:25;;;;;;;7.55;3.67;;;;;;;-2.47;95.75;100927.88;4995790;28;20061;-62
2021/01/03 11:00:14;;;;;;;7.90;4.03;;;;;;;-2.46;95.92;100933.81;5012112;28;20050;-61
2021/01/03 11:03:00;;;;;;;5.63;3.45;;;;;;;-2.50;95.27;100930.44;4996448;28;20054;-62
2021/01/03 11:05:47;;;;;;;5.57;2.80;;;;;;;-2.52;95.68;100933.84;4996941;28;20062;-61
2021/01/03 11:08:34;;;;;;;8.73;3.92;;;;;;;-2.57;96.73;100932.16;5007820;28;20575;-61
2021/01/03 11:11:21;;;;;;;8.13;3.60;;;;;;;-2.59;95.68;100933.91;4996149;28;20461;-61
2021/01/03 11:14:07;;;;;;;8.15;3.53;;;;;;;-2.58;96.29;100932.19;4998266;28;20054;-61
2021/01/03 11:16:54;;;;;;;6.60;3.25;;;;;;;-2.51;96.13;100938.97;4997692;28;20045;-61
2021/01/03 11:19:41;;;;;;;7.38;3.88;;;;;;;-2.66;96.54;100952.75;4996753;28;20046;-62
2021/01/03 11:22:28;;;;;;;5.57;3.38;;;;;;;-2.59;95.91;100954.38;4995120;28;20108;-61
2021/01/03 11:25:15;;;;;;;7.85;3.20;;;;;;;-2.59;96.97;100943.31;5009881;28;20485;-61
2021/01/03 11:28:02;;;;;;;5.60;3.38;;;;;;;-2.55;96.13;100937.31;4993474;28;20498;-61
2021/01/03 11:30:49;;;;;;;6.15;3.10;;;;;;;-2.57;95.78;100949.25;4996434;28;20100;-62
2021/01/03 11:33:35;;;;;;;7.70;3.45;;;;;;;-2.57;96.19;100954.38;4994224;28;20068;-62
2021/01/03 11:36:23;;;;;;;6.45;3.78;;;;;;;-2.64;96.61;100961.25;5008894;28;20096;-61
2021/01/03 11:39:10;;;;;;;6.90;3.45;;;;;;;-2.63;96.95;100951.84;4995407;28;20485;-62
2021/01/03 11:41:58;;;;;;;7.95;3.60;;;;;;;-2.64;96.10;100958.69;4995710;28;20050;-61
2021/01/03 11:44:45;;;;;;;8.75;4.32;;;;;;;-2.63;95.83;100967.22;4995338;28;20128;-63
2021/01/03 11:47:31;;;;;;;6.38;3.47;;;;;;;-2.69;96.13;100965.56;4996218;28;20050;-61
2021/01/03 11:50:20;;;;;;;7.03;3.65;;;;;;;-2.70;96.86;100966.41;4995938;28;20053;-62
2021/01/03 11:53:06;;;;;;;7.30;3.08;;;;;;;-2.79;97.03;100963.91;4992895;28;20150;-62
2021/01/03 11:55:53;;;;;;;8.48;3.80;;;;;;;-2.82;96.10;100966.47;4994309;28;20081;-62
2021/01/03 11:58:39;;;;;;;7.50;4.13;;;;;;;-2.82;97.22;100971.59;4994506;28;20493;-61
2021/01/03 12:01:26;;;;;;;9.88;3.88;;;;;;;-2.84;96.38;100968.22;5008400;28;20133;-61
2021/01/03 12:04:13;;;;;;;8.23;3.95;;;;;;;-2.84;96.99;100974.19;4994326;28;20571;-61
2021/01/03 12:07:02;;;;;;;8.02;4.05;;;;;;;-2.81;96.11;100972.44;4994918;28;20104;-61
2021/01/03 12:09:49;;;;;;;7.07;3.05;;;;;;;-2.85;96.41;100977.59;4995585;28;20054;-61
2021/01/03 12:12:35;;;;;;;9.15;3.40;;;;;;;-2.86;96.71;100982.72;4995082;28;20412;-61
2021/01/03 12:15:23;;;;;;;8.80;3.80;;;;;;;-2.86;97.11;100977.59;4996056;28;20136;-62
2021/01/03 12:18:11;;;;;;;7.22;4.00;;;;;;;-2.85;96.53;100976.72;4995278;28;20060;-62
2021/01/03 12:20:57;;;;;;;7.53;3.72;;;;;;;-2.89;97.20;100980.19;4995862;28;20108;-61
2021/01/03 12:23:43;;;;;;;6.45;3.72;;;;;;;-2.96;97.53;100983.63;4994542;28;20049;-62
2021/01/03 12:26:37;;;;;;;8.27;4.22;;;;;;;-2.94;96.53;100982.75;5008135;28;20135;-61
2021/01/03 12:29:25;;;;;;;7.72;4.03;;;;;;;-2.99;97.75;100993.84;4992531;28;20053;-61
2021/01/03 12:32:12;;;;;;;6.57;3.47;;;;;;;-2.97;97.67;100993.00;4992376;28;20537;-62
2021/01/03 12:35:02;;;;;;;7.63;3.88;;;;;;;-2.96;96.41;100991.28;4993712;28;20057;-62
2021/01/03 12:37:49;;;;;;;8.63;4.85;;;;;;;-3.02;97.42;100989.63;4994983;28;20057;-61
2021/01/03 12:40:36;;;;;;;6.85;3.67;;;;;;;-3.04;97.65;101001.53;4993896;28;20426;-62
2021/01/03 12:43:24;;;;;;;10.00;4.88;;;;;;;-3.05;96.74;101001.56;5005223;28;20054;-61
2021/01/03 12:46:11;;;;;;;7.72;4.32;;;;;;;-3.10;96.52;101004.97;4994193;28;20076;-62
2021/01/03 12:48:58;;;;;;;7.40;3.83;;;;;;;-3.16;97.56;101011.84;5007769;28;20123;-61
2021/01/03 12:51:44;;;;;;;7.95;3.78;;;;;;;-3.14;97.79;101013.53;4997644;28;20136;-62
2021/01/03 12:54:31;;;;;;;7.28;3.75;;;;;;;-3.14;96.96;101016.09;4997629;28;20482;-62
2021/01/03 12:57:18;;;;;;;7.13;3.78;;;;;;;-3.13;97.47;101019.53;4997632;28;20080;-62
2021/01/03 13:00:05;;;;;;;7.22;3.63;;;;;;;-3.20;97.22;101020.38;5011730;28;20082;-62
2021/01/03 13:02:52;;;;;;;8.15;4.15;;;;;;;-3.20;97.03;101023.78;5000830;28;20131;-62
2021/01/03 13:05:39;;;;;;;5.78;3.17;;;;;;;-3.19;97.99;101022.91;4995674;28;20046;-62
2021/01/03 13:08:25;;;;;;;9.30;4.43;;;;;;;-3.23;97.20;101025.50;4997181;28;20096;-62
2021/01/03 13:11:11;;;;;;;7.40;4.05;;;;;;;-3.28;97.72;101028.06;4995814;28;20108;-62
2021/01/03 13:13:58;;;;;;;10.20;4.07;;;;;;;-3.20;97.65;101028.91;4996976;28;20138;-62
2021/01/03 13:16:45;;;;;;;8.23;4.25;;;;;;;-3.19;98.17;101035.72;4996284;28;20096;-62
2021/01/03 13:19:32;;;;;;;7.32;4.00;;;;;;;-3.19;97.33;101032.31;4980752;28;20674;-62